Airfield :
LOGIN :

Register | Disclaimer

   EN    FR    IT 

 










Legend :    VFR   Marginal VFR   IFR   Intensive IFR   Very Intensive IFR
Visi :
Ceiling :
>= 8 km
>= 3000ft
5 to 8 km
1000 to 3000 ft
1500m to 5 km
500 to 1000 ft
800 to 1500m
200 to 500 ft
< 800m
< 200 ft
Symbols :   Thunderstorms  Fog  Heavy snow  Heavy precipitations  Wind > 20 kt
SIGMETs :     Misc.  Thunderstorms  Icing  Turbulence  Mountain Waves  Volcanic Ashes







- Airport Elevation : 82 ft
- IATA code : ALG


DAAG - Alger Houari Boumedienne

CURRENT METAR :
  • 241330Z 35009KT 320V020 9999 FEW026 BKN230 29/18 Q1021

EXPIRED METARs :
  • 241300Z 35008KT 9999 FEW026 BKN230 28/17 Q1021
  • 241230Z 34008KT 9999 FEW026 SCT230 28/17 Q1021
  • 241200Z 35008KT 9999 FEW026TCU 28/16 Q1021
  • 241130Z 35008KT 9999 FEW020 FEW026TCU 28/17 Q1021
  • 241100Z 35007KT 310V040 9999 FEW020 FEW026TCU 26/18 Q1021

TAF TAF DAAG
Valid from the 24 at 12:00 until the 25 at 12:00 UTC


241100Z 2412/2512 04010KT 9999 FEW020
TEMPO 2412/2418 FEW023TCU
BECMG 2418/2421 VRB02KT
PROB30
TEMPO 2421/2502 BKN015
BECMG 2509/2512 04010KT
No reported NOTAMs for that airfield.



MET'MAP, your aeronautical weather chart ! - Copyright ORBIFLY December 2007 - Disclaimer

ORBIFLY MET'MAP TEAM :

Programming & Development : Alexandra Zaïnal
Concept & Development : Baudouin d'Aumeries
Co-Development & Prog : Marc-Olivier Méhu
Technical & hardware support : Manuel Goepfert

Contact : metmap@orbifly.com




SOURCES & CREDITS :

   NOAA